sensor_id;sensor_type;location;lat;lon;timestamp;temperature;humidity
46488;DHT22;32202;48.780;9.204;2023-03-14T00:01:12;11.10;99.90
46488;DHT22;32202;48.780;9.204;2023-03-14T00:03:38;11.10;99.90
46488;DHT22;32202;48.780;9.204;2023-03-14T00:06:03;11.00;99.90
46488;DHT22;32202;48.780;9.204;2023-03-14T00:08:29;11.00;99.90
46488;DHT22;32202;48.780;9.204;2023-03-14T00:10:54;10.90;99.90
46488;DHT22;32202;48.780;9.204;2023-03-14T00:13:20;10.90;99.90
46488;DHT22;32202;48.780;9.204;2023-03-14T00:15:45;10.90;99.90
46488;DHT22;32202;48.780;9.204;2023-03-14T00:18:11;10.80;99.90
46488;DHT22;32202;48.780;9.204;2023-03-14T00:20:36;10.90;99.90
46488;DHT22;32202;48.780;9.204;2023-03-14T00:23:02;10.90;99.90
46488;DHT22;32202;48.780;9.204;2023-03-14T00:25:28;10.80;99.90
46488;DHT22;32202;48.780;9.204;2023-03-14T00:27:53;10.80;99.90
46488;DHT22;32202;48.780;9.204;2023-03-14T00:30:19;10.80;99.90
46488;DHT22;32202;48.780;9.204;2023-03-14T00:32:44;10.80;99.90
46488;DHT22;32202;48.780;9.204;2023-03-14T00:35:10;10.80;99.90
46488;DHT22;32202;48.780;9.204;2023-03-14T00:37:35;10.80;99.90
46488;DHT22;32202;48.780;9.204;2023-03-14T00:40:01;10.80;99.90
46488;DHT22;32202;48.780;9.204;2023-03-14T00:42:26;10.70;99.90
46488;DHT22;32202;48.780;9.204;2023-03-14T00:44:52;10.80;99.90
46488;DHT22;32202;48.780;9.204;2023-03-14T00:47:17;10.80;99.90
46488;DHT22;32202;48.780;9.204;2023-03-14T00:49:43;10.90;99.90
46488;DHT22;32202;48.780;9.204;2023-03-14T00:52:09;11.00;99.90
46488;DHT22;32202;48.780;9.204;2023-03-14T00:54:34;10.90;99.90
46488;DHT22;32202;48.780;9.204;2023-03-14T00:57:00;11.00;99.90
46488;DHT22;32202;48.780;9.204;2023-03-14T00:59:25;11.00;99.90
46488;DHT22;32202;48.780;9.204;2023-03-14T01:01:51;11.10;99.90
46488;DHT22;32202;48.780;9.204;2023-03-14T01:04:16;11.10;99.90
46488;DHT22;32202;48.780;9.204;2023-03-14T01:06:42;11.10;99.90
46488;DHT22;32202;48.780;9.204;2023-03-14T01:09:07;11.10;99.90
46488;DHT22;32202;48.780;9.204;2023-03-14T01:11:33;11.10;99.90
46488;DHT22;32202;48.780;9.204;2023-03-14T01:13:59;11.10;99.90
46488;DHT22;32202;48.780;9.204;2023-03-14T01:16:26;11.10;99.90
46488;DHT22;32202;48.780;9.204;2023-03-14T01:18:51;11.20;99.90
46488;DHT22;32202;48.780;9.204;2023-03-14T01:21:21;11.20;99.90
46488;DHT22;32202;48.780;9.204;2023-03-14T01:23:47;11.20;99.90
46488;DHT22;32202;48.780;9.204;2023-03-14T01:26:14;11.30;99.90
46488;DHT22;32202;48.780;9.204;2023-03-14T01:28:40;11.20;99.90
46488;DHT22;32202;48.780;9.204;2023-03-14T01:31:07;11.20;99.90
46488;DHT22;32202;48.780;9.204;2023-03-14T01:33:33;11.10;99.90
46488;DHT22;32202;48.780;9.204;2023-03-14T01:35:59;11.20;99.90
46488;DHT22;32202;48.780;9.204;2023-03-14T01:38:28;11.20;99.90
46488;DHT22;32202;48.780;9.204;2023-03-14T01:40:53;11.20;99.90
46488;DHT22;32202;48.780;9.204;2023-03-14T01:43:19;11.10;99.90
46488;DHT22;32202;48.780;9.204;2023-03-14T01:48:24;11.00;99.90
46488;DHT22;32202;48.780;9.204;2023-03-14T01:50:50;11.10;99.90
46488;DHT22;32202;48.780;9.204;2023-03-14T01:53:16;11.00;99.90
46488;DHT22;32202;48.780;9.204;2023-03-14T01:55:42;11.00;99.90
46488;DHT22;32202;48.780;9.204;2023-03-14T01:58:08;11.00;99.90
46488;DHT22;32202;48.780;9.204;2023-03-14T02:00:34;10.90;99.90
46488;DHT22;32202;48.780;9.204;2023-03-14T02:03:04;10.90;99.90
46488;DHT22;32202;48.780;9.204;2023-03-14T02:05:34;10.90;99.90
46488;DHT22;32202;48.780;9.204;2023-03-14T02:08:01;10.90;99.90
46488;DHT22;32202;48.780;9.204;2023-03-14T02:10:28;10.90;99.90
46488;DHT22;32202;48.780;9.204;2023-03-14T02:12:55;10.90;99.90
46488;DHT22;32202;48.780;9.204;2023-03-14T02:15:20;10.90;99.90
46488;DHT22;32202;48.780;9.204;2023-03-14T02:17:46;10.90;99.90
46488;DHT22;32202;48.780;9.204;2023-03-14T02:20:22;10.90;99.90
46488;DHT22;32202;48.780;9.204;2023-03-14T02:22:49;10.90;99.90
46488;DHT22;32202;48.780;9.204;2023-03-14T02:27:50;10.80;99.90
46488;DHT22;32202;48.780;9.204;2023-03-14T02:30:26;10.80;99.90
46488;DHT22;32202;48.780;9.204;2023-03-14T02:32:52;10.70;99.90
46488;DHT22;32202;48.780;9.204;2023-03-14T02:35:23;10.70;99.90
46488;DHT22;32202;48.780;9.204;2023-03-14T02:38:12;10.70;99.90
46488;DHT22;32202;48.780;9.204;2023-03-14T02:40:35;10.70;99.90
46488;DHT22;32202;48.780;9.204;2023-03-14T02:43:00;10.60;99.90
46488;DHT22;32202;48.780;9.204;2023-03-14T02:45:31;10.60;99.90
46488;DHT22;32202;48.780;9.204;2023-03-14T02:47:59;10.70;99.90
46488;DHT22;32202;48.780;9.204;2023-03-14T02:50:27;10.60;99.90
46488;DHT22;32202;48.780;9.204;2023-03-14T02:52:54;10.60;99.90
46488;DHT22;32202;48.780;9.204;2023-03-14T02:55:20;10.60;99.90
46488;DHT22;32202;48.780;9.204;2023-03-14T02:57:46;10.60;99.90
46488;DHT22;32202;48.780;9.204;2023-03-14T03:00:11;10.60;99.90
46488;DHT22;32202;48.780;9.204;2023-03-14T03:02:37;10.60;99.90
46488;DHT22;32202;48.780;9.204;2023-03-14T03:05:02;10.60;99.90
46488;DHT22;32202;48.780;9.204;2023-03-14T03:07:28;10.60;99.90
46488;DHT22;32202;48.780;9.204;2023-03-14T03:09:53;10.60;99.90
46488;DHT22;32202;48.780;9.204;2023-03-14T03:12:19;10.60;99.90
46488;DHT22;32202;48.780;9.204;2023-03-14T03:14:44;10.60;99.90
46488;DHT22;32202;48.780;9.204;2023-03-14T03:17:10;10.60;99.90
46488;DHT22;32202;48.780;9.204;2023-03-14T03:19:35;10.60;99.90
46488;DHT22;32202;48.780;9.204;2023-03-14T03:22:01;10.60;99.90
46488;DHT22;32202;48.780;9.204;2023-03-14T03:24:26;10.50;99.90
46488;DHT22;32202;48.780;9.204;2023-03-14T03:26:52;10.60;99.90
46488;DHT22;32202;48.780;9.204;2023-03-14T03:29:18;10.60;99.90
46488;DHT22;32202;48.780;9.204;2023-03-14T03:31:43;10.60;99.90
46488;DHT22;32202;48.780;9.204;2023-03-14T03:34:11;10.50;99.90
46488;DHT22;32202;48.780;9.204;2023-03-14T03:36:36;10.50;99.90
46488;DHT22;32202;48.780;9.204;2023-03-14T03:39:01;10.50;99.90
46488;DHT22;32202;48.780;9.204;2023-03-14T03:41:27;10.50;99.90
46488;DHT22;32202;48.780;9.204;2023-03-14T03:43:53;10.50;99.90
46488;DHT22;32202;48.780;9.204;2023-03-14T03:46:19;10.40;99.90
46488;DHT22;32202;48.780;9.204;2023-03-14T03:48:45;10.40;99.90
46488;DHT22;32202;48.780;9.204;2023-03-14T03:51:14;10.40;99.90
46488;DHT22;32202;48.780;9.204;2023-03-14T03:53:39;10.40;99.90
46488;DHT22;32202;48.780;9.204;2023-03-14T03:56:05;10.40;99.90
46488;DHT22;32202;48.780;9.204;2023-03-14T03:58:31;10.40;99.90
46488;DHT22;32202;48.780;9.204;2023-03-14T04:00:56;10.30;99.90
46488;DHT22;32202;48.780;9.204;2023-03-14T04:03:22;10.30;99.90
46488;DHT22;32202;48.780;9.204;2023-03-14T04:05:57;10.30;99.90
46488;DHT22;32202;48.780;9.204;2023-03-14T04:08:22;10.30;99.90
46488;DHT22;32202;48.780;9.204;2023-03-14T04:10:48;10.30;99.80
46488;DHT22;32202;48.780;9.204;2023-03-14T04:13:13;10.30;99.40
46488;DHT22;32202;48.780;9.204;2023-03-14T04:15:39;10.30;99.30
46488;DHT22;32202;48.780;9.204;2023-03-14T04:18:04;10.30;98.60
46488;DHT22;32202;48.780;9.204;2023-03-14T04:20:29;10.30;98.90
46488;DHT22;32202;48.780;9.204;2023-03-14T04:22:55;10.30;98.80
46488;DHT22;32202;48.780;9.204;2023-03-14T04:25:21;10.30;98.40
46488;DHT22;32202;48.780;9.204;2023-03-14T04:27:47;10.30;98.20
46488;DHT22;32202;48.780;9.204;2023-03-14T04:30:12;10.30;98.10
46488;DHT22;32202;48.780;9.204;2023-03-14T04:32:38;10.20;98.20
46488;DHT22;32202;48.780;9.204;2023-03-14T04:35:04;10.20;97.80
46488;DHT22;32202;48.780;9.204;2023-03-14T04:37:29;10.20;97.80
46488;DHT22;32202;48.780;9.204;2023-03-14T04:39:55;10.20;97.90
46488;DHT22;32202;48.780;9.204;2023-03-14T04:42:20;10.20;97.80
46488;DHT22;32202;48.780;9.204;2023-03-14T04:44:46;10.20;98.20
46488;DHT22;32202;48.780;9.204;2023-03-14T04:47:14;10.10;98.30
46488;DHT22;32202;48.780;9.204;2023-03-14T04:49:39;10.10;98.40
46488;DHT22;32202;48.780;9.204;2023-03-14T04:52:05;10.10;98.50
46488;DHT22;32202;48.780;9.204;2023-03-14T04:54:30;10.10;98.30
46488;DHT22;32202;48.780;9.204;2023-03-14T04:56:56;10.10;98.90
46488;DHT22;32202;48.780;9.204;2023-03-14T04:59:21;10.10;98.50
46488;DHT22;32202;48.780;9.204;2023-03-14T05:01:47;10.10;98.50
46488;DHT22;32202;48.780;9.204;2023-03-14T05:04:13;10.00;98.90
46488;DHT22;32202;48.780;9.204;2023-03-14T05:06:39;10.00;99.00
46488;DHT22;32202;48.780;9.204;2023-03-14T05:09:05;10.00;99.10
46488;DHT22;32202;48.780;9.204;2023-03-14T05:11:30;9.90;99.20
46488;DHT22;32202;48.780;9.204;2023-03-14T05:13:55;9.90;99.60
46488;DHT22;32202;48.780;9.204;2023-03-14T05:16:21;9.90;99.50
46488;DHT22;32202;48.780;9.204;2023-03-14T05:18:46;9.90;99.50
46488;DHT22;32202;48.780;9.204;2023-03-14T05:21:12;9.80;99.60
46488;DHT22;32202;48.780;9.204;2023-03-14T05:23:37;9.80;99.40
46488;DHT22;32202;48.780;9.204;2023-03-14T05:26:03;9.90;99.50
46488;DHT22;32202;48.780;9.204;2023-03-14T05:28:28;9.90;99.80
46488;DHT22;32202;48.780;9.204;2023-03-14T05:30:54;9.90;99.90
46488;DHT22;32202;48.780;9.204;2023-03-14T05:33:19;9.90;99.50
46488;DHT22;32202;48.780;9.204;2023-03-14T05:35:45;9.90;99.10
46488;DHT22;32202;48.780;9.204;2023-03-14T05:38:10;9.80;99.40
46488;DHT22;32202;48.780;9.204;2023-03-14T05:40:36;9.80;99.20
46488;DHT22;32202;48.780;9.204;2023-03-14T05:43:01;9.90;99.10
46488;DHT22;32202;48.780;9.204;2023-03-14T05:45:27;9.90;99.00
46488;DHT22;32202;48.780;9.204;2023-03-14T05:47:52;9.90;98.90
46488;DHT22;32202;48.780;9.204;2023-03-14T05:50:18;9.80;99.20
46488;DHT22;32202;48.780;9.204;2023-03-14T05:52:43;9.80;99.10
46488;DHT22;32202;48.780;9.204;2023-03-14T05:55:09;9.80;99.30
46488;DHT22;32202;48.780;9.204;2023-03-14T05:57:34;9.80;98.90
46488;DHT22;32202;48.780;9.204;2023-03-14T06:00:00;9.80;98.70
46488;DHT22;32202;48.780;9.204;2023-03-14T06:02:25;9.80;98.80
46488;DHT22;32202;48.780;9.204;2023-03-14T06:04:51;9.90;98.20
46488;DHT22;32202;48.780;9.204;2023-03-14T06:07:16;9.90;98.10
46488;DHT22;32202;48.780;9.204;2023-03-14T06:09:41;9.90;98.10
46488;DHT22;32202;48.780;9.204;2023-03-14T06:12:07;9.90;97.90
46488;DHT22;32202;48.780;9.204;2023-03-14T06:14:32;9.90;97.90
46488;DHT22;32202;48.780;9.204;2023-03-14T06:16:58;10.00;97.50
46488;DHT22;32202;48.780;9.204;2023-03-14T06:19:26;10.10;97.20
46488;DHT22;32202;48.780;9.204;2023-03-14T06:21:52;10.10;96.80
46488;DHT22;32202;48.780;9.204;2023-03-14T06:24:17;10.10;96.60
46488;DHT22;32202;48.780;9.204;2023-03-14T06:26:43;10.20;96.60
46488;DHT22;32202;48.780;9.204;2023-03-14T06:29:09;10.20;96.60
46488;DHT22;32202;48.780;9.204;2023-03-14T06:31:35;10.20;95.90
46488;DHT22;32202;48.780;9.204;2023-03-14T06:34:00;10.20;96.20
46488;DHT22;32202;48.780;9.204;2023-03-14T06:36:26;10.30;96.30
46488;DHT22;32202;48.780;9.204;2023-03-14T06:38:51;10.30;95.60
46488;DHT22;32202;48.780;9.204;2023-03-14T06:41:17;10.40;95.10
46488;DHT22;32202;48.780;9.204;2023-03-14T06:43:42;10.50;94.80
46488;DHT22;32202;48.780;9.204;2023-03-14T06:46:08;10.70;93.90
46488;DHT22;32202;48.780;9.204;2023-03-14T06:48:33;10.80;93.70
46488;DHT22;32202;48.780;9.204;2023-03-14T06:50:59;11.10;93.20
46488;DHT22;32202;48.780;9.204;2023-03-14T06:53:24;12.00;92.00
46488;DHT22;32202;48.780;9.204;2023-03-14T06:55:50;13.20;84.70
46488;DHT22;32202;48.780;9.204;2023-03-14T06:58:15;14.20;77.40
46488;DHT22;32202;48.780;9.204;2023-03-14T07:00:41;15.50;72.00
46488;DHT22;32202;48.780;9.204;2023-03-14T07:03:07;16.80;66.00
46488;DHT22;32202;48.780;9.204;2023-03-14T07:05:32;17.90;60.90
46488;DHT22;32202;48.780;9.204;2023-03-14T07:07:58;17.60;59.70
46488;DHT22;32202;48.780;9.204;2023-03-14T07:10:23;16.90;61.30
46488;DHT22;32202;48.780;9.204;2023-03-14T07:12:48;16.80;62.00
46488;DHT22;32202;48.780;9.204;2023-03-14T07:15:14;16.90;61.20
46488;DHT22;32202;48.780;9.204;2023-03-14T07:17:40;16.90;60.70
46488;DHT22;32202;48.780;9.204;2023-03-14T07:20:05;17.70;59.10
46488;DHT22;32202;48.780;9.204;2023-03-14T07:22:32;18.90;56.10
46488;DHT22;32202;48.780;9.204;2023-03-14T07:24:57;20.10;52.70
46488;DHT22;32202;48.780;9.204;2023-03-14T07:27:23;20.50;51.40
46488;DHT22;32202;48.780;9.204;2023-03-14T07:29:48;20.80;50.40
46488;DHT22;32202;48.780;9.204;2023-03-14T07:32:14;21.70;49.10
46488;DHT22;32202;48.780;9.204;2023-03-14T07:34:42;21.60;47.90
46488;DHT22;32202;48.780;9.204;2023-03-14T07:37:08;21.80;48.20
46488;DHT22;32202;48.780;9.204;2023-03-14T07:39:34;22.30;47.20
46488;DHT22;32202;48.780;9.204;2023-03-14T07:42:00;23.40;45.70
46488;DHT22;32202;48.780;9.204;2023-03-14T07:44:25;24.20;44.10
46488;DHT22;32202;48.780;9.204;2023-03-14T07:46:51;24.60;42.90
46488;DHT22;32202;48.780;9.204;2023-03-14T07:49:16;24.60;42.60
46488;DHT22;32202;48.780;9.204;2023-03-14T07:51:42;25.00;42.20
46488;DHT22;32202;48.780;9.204;2023-03-14T07:54:09;24.80;42.00
46488;DHT22;32202;48.780;9.204;2023-03-14T07:56:35;24.60;42.20
46488;DHT22;32202;48.780;9.204;2023-03-14T07:59:00;24.70;42.30
46488;DHT22;32202;48.780;9.204;2023-03-14T08:01:26;25.00;41.70
46488;DHT22;32202;48.780;9.204;2023-03-14T08:03:52;25.10;41.40
46488;DHT22;32202;48.780;9.204;2023-03-14T08:06:17;25.50;40.60
46488;DHT22;32202;48.780;9.204;2023-03-14T08:08:44;24.30;42.30
46488;DHT22;32202;48.780;9.204;2023-03-14T08:11:09;24.10;42.30
46488;DHT22;32202;48.780;9.204;2023-03-14T08:13:35;24.90;41.70
46488;DHT22;32202;48.780;9.204;2023-03-14T08:16:01;25.70;40.60
46488;DHT22;32202;48.780;9.204;2023-03-14T08:18:26;26.70;39.80
46488;DHT22;32202;48.780;9.204;2023-03-14T08:20:52;26.60;39.10
46488;DHT22;32202;48.780;9.204;2023-03-14T08:23:17;25.50;40.30
46488;DHT22;32202;48.780;9.204;2023-03-14T08:25:43;25.20;40.40
46488;DHT22;32202;48.780;9.204;2023-03-14T08:28:08;25.10;41.30
46488;DHT22;32202;48.780;9.204;2023-03-14T08:30:34;24.50;41.30
46488;DHT22;32202;48.780;9.204;2023-03-14T08:32:59;24.70;41.20
46488;DHT22;32202;48.780;9.204;2023-03-14T08:35:25;24.90;40.80
46488;DHT22;32202;48.780;9.204;2023-03-14T08:37:50;25.90;39.80
46488;DHT22;32202;48.780;9.204;2023-03-14T08:40:17;27.00;38.50
46488;DHT22;32202;48.780;9.204;2023-03-14T08:42:43;27.90;38.20
46488;DHT22;32202;48.780;9.204;2023-03-14T08:45:08;27.70;36.90
46488;DHT22;32202;48.780;9.204;2023-03-14T08:47:34;26.40;38.00
46488;DHT22;32202;48.780;9.204;2023-03-14T08:50:00;25.10;39.50
46488;DHT22;32202;48.780;9.204;2023-03-14T08:52:25;24.90;39.60
46488;DHT22;32202;48.780;9.204;2023-03-14T08:54:51;24.20;40.40
46488;DHT22;32202;48.780;9.204;2023-03-14T08:57:16;24.40;40.50
46488;DHT22;32202;48.780;9.204;2023-03-14T08:59:42;25.30;39.20
46488;DHT22;32202;48.780;9.204;2023-03-14T09:02:10;25.50;39.10
46488;DHT22;32202;48.780;9.204;2023-03-14T09:04:36;25.20;39.30
46488;DHT22;32202;48.780;9.204;2023-03-14T09:07:01;25.70;39.10
46488;DHT22;32202;48.780;9.204;2023-03-14T09:09:28;25.40;39.10
46488;DHT22;32202;48.780;9.204;2023-03-14T09:11:53;24.00;40.90
46488;DHT22;32202;48.780;9.204;2023-03-14T09:14:19;23.10;42.60
46488;DHT22;32202;48.780;9.204;2023-03-14T09:16:45;21.70;45.40
46488;DHT22;32202;48.780;9.204;2023-03-14T09:19:10;21.40;45.80
46488;DHT22;32202;48.780;9.204;2023-03-14T09:21:36;22.00;45.10
46488;DHT22;32202;48.780;9.204;2023-03-14T09:24:02;23.30;43.70
46488;DHT22;32202;48.780;9.204;2023-03-14T09:26:28;24.30;42.40
46488;DHT22;32202;48.780;9.204;2023-03-14T09:28:53;25.00;41.60
46488;DHT22;32202;48.780;9.204;2023-03-14T09:31:19;25.40;40.80
46488;DHT22;32202;48.780;9.204;2023-03-14T09:33:44;25.80;40.30
46488;DHT22;32202;48.780;9.204;2023-03-14T09:36:10;25.50;40.50
46488;DHT22;32202;48.780;9.204;2023-03-14T09:38:35;24.60;41.80
46488;DHT22;32202;48.780;9.204;2023-03-14T09:41:01;24.20;42.40
46488;DHT22;32202;48.780;9.204;2023-03-14T09:43:29;23.90;43.20
46488;DHT22;32202;48.780;9.204;2023-03-14T09:45:55;23.30;43.90
46488;DHT22;32202;48.780;9.204;2023-03-14T09:48:22;22.10;45.80
46488;DHT22;32202;48.780;9.204;2023-03-14T09:50:50;20.60;48.10
46488;DHT22;32202;48.780;9.204;2023-03-14T09:53:18;19.70;50.00
46488;DHT22;32202;48.780;9.204;2023-03-14T09:55:45;19.10;51.00
46488;DHT22;32202;48.780;9.204;2023-03-14T09:58:13;18.70;51.60
46488;DHT22;32202;48.780;9.204;2023-03-14T10:00:39;18.20;52.30
46488;DHT22;32202;48.780;9.204;2023-03-14T10:03:14;17.90;53.00
46488;DHT22;32202;48.780;9.204;2023-03-14T10:05:43;18.00;52.70
46488;DHT22;32202;48.780;9.204;2023-03-14T10:08:12;18.10;53.00
46488;DHT22;32202;48.780;9.204;2023-03-14T10:10:38;19.30;50.80
46488;DHT22;32202;48.780;9.204;2023-03-14T10:15:35;21.10;47.70
46488;DHT22;32202;48.780;9.204;2023-03-14T10:18:02;23.10;44.60
46488;DHT22;32202;48.780;9.204;2023-03-14T10:20:38;24.20;42.60
46488;DHT22;32202;48.780;9.204;2023-03-14T10:23:05;24.30;41.90
46488;DHT22;32202;48.780;9.204;2023-03-14T10:25:33;25.10;40.90
46488;DHT22;32202;48.780;9.204;2023-03-14T10:27:59;26.10;39.80
46488;DHT22;32202;48.780;9.204;2023-03-14T10:30:33;26.90;38.70
46488;DHT22;32202;48.780;9.204;2023-03-14T10:33:22;26.90;38.40
46488;DHT22;32202;48.780;9.204;2023-03-14T10:35:46;24.70;40.10
46488;DHT22;32202;48.780;9.204;2023-03-14T10:38:17;22.60;43.20
46488;DHT22;32202;48.780;9.204;2023-03-14T10:40:46;20.60;46.40
46488;DHT22;32202;48.780;9.204;2023-03-14T10:43:17;19.40;49.10
46488;DHT22;32202;48.780;9.204;2023-03-14T10:45:51;18.70;50.60
46488;DHT22;32202;48.780;9.204;2023-03-14T10:48:19;18.80;50.50
46488;DHT22;32202;48.780;9.204;2023-03-14T10:50:52;18.60;50.90
46488;DHT22;32202;48.780;9.204;2023-03-14T10:53:19;18.60;51.60
46488;DHT22;32202;48.780;9.204;2023-03-14T10:55:44;18.30;51.60
46488;DHT22;32202;48.780;9.204;2023-03-14T10:58:20;17.90;52.70
46488;DHT22;32202;48.780;9.204;2023-03-14T11:03:38;17.60;53.90
46488;DHT22;32202;48.780;9.204;2023-03-14T11:06:11;17.00;55.80
46488;DHT22;32202;48.780;9.204;2023-03-14T11:11:14;16.40;58.80
46488;DHT22;32202;48.780;9.204;2023-03-14T11:13:47;16.10;60.30
46488;DHT22;32202;48.780;9.204;2023-03-14T11:21:29;15.70;61.50
46488;DHT22;32202;48.780;9.204;2023-03-14T11:26:40;15.20;63.20
46488;DHT22;32202;48.780;9.204;2023-03-14T11:29:11;14.90;64.90
46488;DHT22;32202;48.780;9.204;2023-03-14T11:31:38;14.70;67.10
46488;DHT22;32202;48.780;9.204;2023-03-14T11:34:40;14.60;67.10
46488;DHT22;32202;48.780;9.204;2023-03-14T11:37:07;14.50;69.20
46488;DHT22;32202;48.780;9.204;2023-03-14T11:39:38;14.50;69.90
46488;DHT22;32202;48.780;9.204;2023-03-14T11:42:04;14.60;70.30
46488;DHT22;32202;48.780;9.204;2023-03-14T11:44:37;14.90;72.00
46488;DHT22;32202;48.780;9.204;2023-03-14T11:52:32;15.30;67.30
46488;DHT22;32202;48.780;9.204;2023-03-14T11:55:13;14.80;68.60
46488;DHT22;32202;48.780;9.204;2023-03-14T11:57:42;14.60;71.00
46488;DHT22;32202;48.780;9.204;2023-03-14T12:00:19;14.70;71.40
46488;DHT22;32202;48.780;9.204;2023-03-14T12:08:19;14.50;73.10
46488;DHT22;32202;48.780;9.204;2023-03-14T12:13:16;14.70;71.20
46488;DHT22;32202;48.780;9.204;2023-03-14T12:15:50;15.00;71.40
46488;DHT22;32202;48.780;9.204;2023-03-14T12:18:20;15.10;70.40
46488;DHT22;32202;48.780;9.204;2023-03-14T12:20:53;14.80;70.40
46488;DHT22;32202;48.780;9.204;2023-03-14T12:23:19;14.50;71.40
46488;DHT22;32202;48.780;9.204;2023-03-14T12:25:46;14.40;73.50
46488;DHT22;32202;48.780;9.204;2023-03-14T12:28:18;14.40;73.50
46488;DHT22;32202;48.780;9.204;2023-03-14T12:30:44;15.80;69.90
46488;DHT22;32202;48.780;9.204;2023-03-14T12:35:48;17.40;58.60
46488;DHT22;32202;48.780;9.204;2023-03-14T12:38:16;17.40;56.80
46488;DHT22;32202;48.780;9.204;2023-03-14T12:43:25;16.90;55.80
46488;DHT22;32202;48.780;9.204;2023-03-14T12:48:35;18.20;50.40
46488;DHT22;32202;48.780;9.204;2023-03-14T12:51:03;19.10;49.10
46488;DHT22;32202;48.780;9.204;2023-03-14T13:01:26;22.80;38.10
46488;DHT22;32202;48.780;9.204;2023-03-14T13:03:52;22.30;39.00
46488;DHT22;32202;48.780;9.204;2023-03-14T13:11:49;22.00;38.90
46488;DHT22;32202;48.780;9.204;2023-03-14T13:14:14;21.30;39.60
46488;DHT22;32202;48.780;9.204;2023-03-14T13:16:40;20.80;40.60
46488;DHT22;32202;48.780;9.204;2023-03-14T13:19:11;19.90;41.20
46488;DHT22;32202;48.780;9.204;2023-03-14T13:21:39;18.20;42.50
46488;DHT22;32202;48.780;9.204;2023-03-14T13:24:06;17.90;42.70
46488;DHT22;32202;48.780;9.204;2023-03-14T13:26:34;17.80;42.80
46488;DHT22;32202;48.780;9.204;2023-03-14T13:28:59;18.00;42.80
46488;DHT22;32202;48.780;9.204;2023-03-14T13:31:25;17.80;43.30
46488;DHT22;32202;48.780;9.204;2023-03-14T13:34:01;16.80;44.00
46488;DHT22;32202;48.780;9.204;2023-03-14T13:36:27;16.20;45.80
46488;DHT22;32202;48.780;9.204;2023-03-14T13:38:59;16.00;46.30
46488;DHT22;32202;48.780;9.204;2023-03-14T13:41:25;15.70;45.80
46488;DHT22;32202;48.780;9.204;2023-03-14T13:43:51;15.50;45.50
46488;DHT22;32202;48.780;9.204;2023-03-14T13:46:19;15.50;45.60
46488;DHT22;32202;48.780;9.204;2023-03-14T13:48:49;15.50;45.00
46488;DHT22;32202;48.780;9.204;2023-03-14T13:51:19;15.30;45.40
46488;DHT22;32202;48.780;9.204;2023-03-14T13:53:49;15.30;45.30
46488;DHT22;32202;48.780;9.204;2023-03-14T13:56:15;15.50;45.20
46488;DHT22;32202;48.780;9.204;2023-03-14T13:58:41;15.60;44.30
46488;DHT22;32202;48.780;9.204;2023-03-14T14:01:12;15.40;44.50
46488;DHT22;32202;48.780;9.204;2023-03-14T14:03:39;15.10;43.80
46488;DHT22;32202;48.780;9.204;2023-03-14T14:06:52;14.60;45.50
46488;DHT22;32202;48.780;9.204;2023-03-14T14:08:53;14.40;44.90
46488;DHT22;32202;48.780;9.204;2023-03-14T14:11:27;14.50;45.70
46488;DHT22;32202;48.780;9.204;2023-03-14T14:13:56;14.40;45.60
46488;DHT22;32202;48.780;9.204;2023-03-14T14:16:23;14.40;45.20
46488;DHT22;32202;48.780;9.204;2023-03-14T14:18:50;14.10;44.30
46488;DHT22;32202;48.780;9.204;2023-03-14T14:21:16;13.60;44.90
46488;DHT22;32202;48.780;9.204;2023-03-14T14:23:42;13.30;44.20
46488;DHT22;32202;48.780;9.204;2023-03-14T14:26:08;13.10;44.90
46488;DHT22;32202;48.780;9.204;2023-03-14T14:28:34;13.10;44.70
46488;DHT22;32202;48.780;9.204;2023-03-14T14:31:01;12.90;45.20
46488;DHT22;32202;48.780;9.204;2023-03-14T14:33:27;12.80;45.80
46488;DHT22;32202;48.780;9.204;2023-03-14T14:35:59;12.90;45.60
46488;DHT22;32202;48.780;9.204;2023-03-14T14:38:25;13.00;45.70
46488;DHT22;32202;48.780;9.204;2023-03-14T14:40:53;12.90;45.80
46488;DHT22;32202;48.780;9.204;2023-03-14T14:43:23;13.00;45.50
46488;DHT22;32202;48.780;9.204;2023-03-14T14:45:50;12.80;45.80
46488;DHT22;32202;48.780;9.204;2023-03-14T14:48:18;12.80;46.30
46488;DHT22;32202;48.780;9.204;2023-03-14T14:55:44;12.30;46.20
46488;DHT22;32202;48.780;9.204;2023-03-14T15:00:52;12.20;46.60
46488;DHT22;32202;48.780;9.204;2023-03-14T15:03:18;12.10;47.20
46488;DHT22;32202;48.780;9.204;2023-03-14T15:05:44;12.10;47.30
46488;DHT22;32202;48.780;9.204;2023-03-14T15:08:09;12.10;47.60
46488;DHT22;32202;48.780;9.204;2023-03-14T15:10:35;12.00;47.70
46488;DHT22;32202;48.780;9.204;2023-03-14T15:13:00;12.10;47.50
46488;DHT22;32202;48.780;9.204;2023-03-14T15:15:26;12.10;47.70
46488;DHT22;32202;48.780;9.204;2023-03-14T15:17:51;12.40;47.10
46488;DHT22;32202;48.780;9.204;2023-03-14T15:20:17;12.40;47.00
46488;DHT22;32202;48.780;9.204;2023-03-14T15:22:44;12.50;47.10
46488;DHT22;32202;48.780;9.204;2023-03-14T15:25:10;12.60;46.90
46488;DHT22;32202;48.780;9.204;2023-03-14T15:27:36;13.30;45.40
46488;DHT22;32202;48.780;9.204;2023-03-14T15:30:05;13.90;45.10
46488;DHT22;32202;48.780;9.204;2023-03-14T15:32:30;14.50;43.80
46488;DHT22;32202;48.780;9.204;2023-03-14T15:34:56;14.40;43.90
46488;DHT22;32202;48.780;9.204;2023-03-14T15:37:22;14.10;44.60
46488;DHT22;32202;48.780;9.204;2023-03-14T15:39:48;14.00;44.90
46488;DHT22;32202;48.780;9.204;2023-03-14T15:42:13;14.00;44.70
46488;DHT22;32202;48.780;9.204;2023-03-14T15:44:39;13.30;45.80
46488;DHT22;32202;48.780;9.204;2023-03-14T15:47:04;13.30;46.30
46488;DHT22;32202;48.780;9.204;2023-03-14T15:49:31;13.10;46.50
46488;DHT22;32202;48.780;9.204;2023-03-14T15:51:57;12.80;46.80
46488;DHT22;32202;48.780;9.204;2023-03-14T15:54:22;12.60;47.50
46488;DHT22;32202;48.780;9.204;2023-03-14T15:56:48;12.40;48.20
46488;DHT22;32202;48.780;9.204;2023-03-14T15:59:13;12.40;48.30
46488;DHT22;32202;48.780;9.204;2023-03-14T16:01:38;12.50;48.80
46488;DHT22;32202;48.780;9.204;2023-03-14T16:04:04;12.60;48.30
46488;DHT22;32202;48.780;9.204;2023-03-14T16:06:29;12.70;48.30
46488;DHT22;32202;48.780;9.204;2023-03-14T16:08:56;12.60;48.10
46488;DHT22;32202;48.780;9.204;2023-03-14T16:11:21;12.50;48.50
46488;DHT22;32202;48.780;9.204;2023-03-14T16:13:47;12.30;48.30
46488;DHT22;32202;48.780;9.204;2023-03-14T16:16:13;12.30;48.70
46488;DHT22;32202;48.780;9.204;2023-03-14T16:18:38;12.30;49.00
46488;DHT22;32202;48.780;9.204;2023-03-14T16:21:05;12.10;49.90
46488;DHT22;32202;48.780;9.204;2023-03-14T16:23:32;12.10;49.50
46488;DHT22;32202;48.780;9.204;2023-03-14T16:25:58;11.90;49.70
46488;DHT22;32202;48.780;9.204;2023-03-14T16:28:23;11.80;50.50
46488;DHT22;32202;48.780;9.204;2023-03-14T16:30:49;11.80;50.30
46488;DHT22;32202;48.780;9.204;2023-03-14T16:33:15;11.70;50.90